Time;durP1;ratioP1;P1;durP2;ratioP2;P2;SDS_P1;SDS_P2;PMS_P1;PMS_P2;Temp;Humidity;BMP_temperature;BMP_pressure;BME280_temperature;BME280_humidity;BME280_pressure;Samples;Min_cycle;Max_cycle;Signal;HPM_P1;HPM_P2
2023/05/13 00:00:44;;;;;;;7.37;3.90;;;;;;;9.75;100.00;95000.72;5090883;28;20208;-85
2023/05/13 00:03:13;;;;;;;6.10;3.73;;;;;;;9.56;100.00;94986.78;5095614;28;20538;-86
2023/05/13 00:05:40;;;;;;;8.67;4.30;;;;;;;9.68;100.00;95011.09;5090349;28;20225;-88
2023/05/13 00:08:07;;;;;;;7.17;4.00;;;;;;;9.71;100.00;95017.69;5091314;28;20227;-86
2023/05/13 00:10:34;;;;;;;5.87;3.60;;;;;;;9.91;100.00;95035.81;5091204;28;20266;-79
2023/05/13 00:13:00;;;;;;;6.23;4.27;;;;;;;9.99;100.00;95033.78;5091615;28;20515;-87
2023/05/13 00:15:28;;;;;;;8.60;4.63;;;;;;;9.80;100.00;95039.84;5090903;28;20212;-85
2023/05/13 00:17:55;;;;;;;5.30;4.17;;;;;;;9.59;100.00;95034.88;5094989;28;20201;-87
2023/05/13 00:20:23;;;;;;;7.27;4.10;;;;;;;9.23;100.00;95031.94;5091495;28;20258;-82
2023/05/13 00:22:50;;;;;;;5.13;4.30;;;;;;;9.08;100.00;95035.50;5090192;28;20208;-81
2023/05/13 00:25:17;;;;;;;7.53;4.27;;;;;;;9.19;100.00;95035.91;5090565;28;20207;-82
2023/05/13 00:27:43;;;;;;;7.60;4.20;;;;;;;9.30;100.00;95036.09;5089936;28;20221;-80
2023/05/13 00:30:11;;;;;;;5.33;3.80;;;;;;;9.40;100.00;95039.09;5090702;28;20545;-76
2023/05/13 00:32:38;;;;;;;10.30;3.90;;;;;;;9.47;100.00;95041.66;5089217;28;20220;-76
2023/05/13 00:35:05;;;;;;;8.10;4.27;;;;;;;9.57;100.00;95039.47;5092443;28;20626;-80
2023/05/13 00:37:34;;;;;;;9.87;4.10;;;;;;;9.66;100.00;95036.47;5089750;28;20204;-80
2023/05/13 00:40:02;;;;;;;8.10;3.80;;;;;;;9.74;100.00;95032.84;5092691;28;20207;-81
2023/05/13 00:42:29;;;;;;;4.00;3.60;;;;;;;9.81;100.00;95043.22;5089364;28;20213;-80
2023/05/13 00:45:08;;;;;;;6.90;4.40;;;;;;;9.83;100.00;95034.22;5092891;28;20678;-82
2023/05/13 00:47:35;;;;;;;5.50;3.80;;;;;;;9.92;100.00;95038.22;5086052;28;20220;-81
2023/05/13 00:50:03;;;;;;;6.20;4.00;;;;;;;9.95;100.00;95030.00;5095230;28;20295;-82
2023/05/13 00:52:29;;;;;;;4.87;4.00;;;;;;;9.97;100.00;95022.00;5089625;28;20616;-82
2023/05/13 00:54:58;;;;;;;4.47;3.93;;;;;;;10.00;100.00;95030.19;5091264;28;20212;-82
2023/05/13 00:57:25;;;;;;;7.63;4.00;;;;;;;10.03;100.00;95022.00;5092615;28;20247;-82
2023/05/13 00:59:52;;;;;;;6.77;4.03;;;;;;;9.97;100.00;95014.22;5089324;28;20663;-82
2023/05/13 01:02:26;;;;;;;4.83;3.70;;;;;;;10.04;100.00;95020.97;5089236;28;20234;-82
2023/05/13 01:04:59;;;;;;;9.37;4.27;;;;;;;9.95;100.00;95004.06;5087838;28;20232;-82
2023/05/13 01:07:34;;;;;;;4.23;3.80;;;;;;;10.03;100.00;95026.38;5087552;28;20305;-82
2023/05/13 01:10:09;;;;;;;6.43;4.20;;;;;;;10.08;100.00;95031.75;5089023;28;20346;-82
2023/05/13 01:12:38;;;;;;;5.50;4.27;;;;;;;10.05;100.00;95032.97;5086588;28;20183;-82
2023/05/13 01:15:08;;;;;;;6.80;4.40;;;;;;;9.99;100.00;95013.00;5087277;28;20204;-78
2023/05/13 01:17:41;;;;;;;6.13;5.10;;;;;;;10.11;100.00;95039.94;5085082;28;20205;-76
2023/05/13 01:20:09;;;;;;;7.77;5.90;;;;;;;10.00;100.00;95031.97;5085121;28;20209;-76
2023/05/13 01:22:40;;;;;;;7.77;6.23;;;;;;;10.04;100.00;95054.72;5084887;28;20208;-78
2023/05/13 01:25:08;;;;;;;9.03;6.43;;;;;;;9.95;100.00;95057.78;5091003;28;20200;-78
2023/05/13 01:27:35;;;;;;;12.03;6.03;;;;;;;9.92;100.00;95077.16;5090292;28;20228;-78
2023/05/13 01:30:03;;;;;;;7.57;6.00;;;;;;;9.75;100.00;95070.78;5088509;28;20208;-78
2023/05/13 01:32:30;;;;;;;10.13;6.70;;;;;;;9.38;100.00;95074.03;5088868;28;20228;-79
2023/05/13 01:34:58;;;;;;;9.80;7.00;;;;;;;9.11;100.00;95070.63;5090769;28;20290;-79
2023/05/13 01:37:25;;;;;;;12.87;7.40;;;;;;;8.90;100.00;95071.59;5091678;28;20361;-77
2023/05/13 01:39:54;;;;;;;11.33;7.40;;;;;;;8.95;100.00;95069.19;5090422;28;20254;-78
2023/05/13 01:42:21;;;;;;;9.90;7.40;;;;;;;8.97;100.00;95063.81;5090410;28;20203;-78
2023/05/13 01:44:47;;;;;;;14.03;7.63;;;;;;;9.15;100.00;95071.03;5087792;28;20227;-77
2023/05/13 01:47:14;;;;;;;10.07;7.00;;;;;;;9.25;100.00;95067.03;5087616;28;20225;-77
2023/05/13 01:49:41;;;;;;;9.17;7.53;;;;;;;9.25;100.00;95068.81;5093662;28;20204;-77
2023/05/13 01:52:08;;;;;;;11.23;7.20;;;;;;;9.27;100.00;95065.03;5089497;28;20209;-82
2023/05/13 01:54:35;;;;;;;10.43;7.90;;;;;;;9.42;100.00;95070.81;5088620;28;20228;-75
2023/05/13 01:57:03;;;;;;;10.67;7.57;;;;;;;9.47;100.00;95075.38;5088401;28;20200;-76
2023/05/13 01:59:30;;;;;;;9.70;7.47;;;;;;;9.48;100.00;95059.66;5087324;28;20457;-76
2023/05/13 02:01:57;;;;;;;9.93;7.17;;;;;;;9.55;100.00;95070.03;5088189;28;20217;-77
2023/05/13 02:04:24;;;;;;;9.43;7.13;;;;;;;9.60;100.00;95062.44;5087676;28;20239;-76
2023/05/13 02:06:51;;;;;;;10.63;7.40;;;;;;;9.63;100.00;95073.22;5087497;28;20221;-76
2023/05/13 02:09:18;;;;;;;11.73;7.20;;;;;;;9.68;100.00;95077.78;5088692;28;20201;-76
2023/05/13 02:11:45;;;;;;;11.33;7.80;;;;;;;9.70;100.00;95060.19;5088970;28;20201;-76
2023/05/13 02:14:13;;;;;;;9.97;7.10;;;;;;;9.75;100.00;95060.41;5089767;28;20212;-76
2023/05/13 02:16:40;;;;;;;13.30;7.17;;;;;;;9.77;100.00;95071.38;5087833;28;20193;-76
2023/05/13 02:19:07;;;;;;;8.60;7.03;;;;;;;9.80;100.00;95067.59;5090979;28;20201;-76
2023/05/13 02:21:34;;;;;;;9.73;7.37;;;;;;;9.79;100.00;95068.56;5087521;28;20686;-76
2023/05/13 02:24:00;;;;;;;8.40;6.67;;;;;;;9.84;100.00;95076.56;5089506;28;20217;-76
2023/05/13 02:26:27;;;;;;;12.80;7.37;;;;;;;9.85;100.00;95083.34;5088451;28;20236;-77
2023/05/13 02:28:54;;;;;;;7.70;6.87;;;;;;;9.89;100.00;95069.78;5092905;28;20584;-76
2023/05/13 02:31:22;;;;;;;10.47;7.50;;;;;;;9.96;100.00;95074.91;5093268;28;20216;-78
2023/05/13 02:33:49;;;;;;;11.67;7.80;;;;;;;10.01;100.00;95077.72;5091742;28;20255;-77
2023/05/13 02:36:16;;;;;;;11.67;7.63;;;;;;;9.97;100.00;95077.34;5091179;28;20197;-76
2023/05/13 02:38:42;;;;;;;11.43;7.70;;;;;;;10.00;100.00;95070.94;5093792;28;20201;-77
2023/05/13 02:41:09;;;;;;;11.93;7.47;;;;;;;10.05;100.00;95074.50;5091697;28;20263;-79
2023/05/13 02:43:36;;;;;;;10.17;8.07;;;;;;;10.03;100.00;95073.13;5088425;28;20286;-76
2023/05/13 02:46:03;;;;;;;10.83;7.57;;;;;;;9.78;100.00;95090.34;5091272;28;20208;-78
2023/05/13 02:48:31;;;;;;;10.23;8.93;;;;;;;9.47;100.00;95083.19;5091357;28;20244;-76
2023/05/13 02:50:58;;;;;;;14.90;9.03;;;;;;;9.09;100.00;95088.16;5091574;28;21221;-78
2023/05/13 02:53:25;;;;;;;16.23;10.27;;;;;;;9.08;100.00;95083.97;5091623;28;20224;-82
2023/05/13 02:55:53;;;;;;;17.03;11.17;;;;;;;9.16;100.00;95090.75;5094391;28;20208;-82
2023/05/13 02:58:20;;;;;;;17.43;10.53;;;;;;;9.24;100.00;95095.75;5093479;28;20254;-76
2023/05/13 03:00:47;;;;;;;18.40;10.10;;;;;;;9.32;100.00;95098.94;5091965;28;20633;-75
2023/05/13 03:03:13;;;;;;;15.93;9.63;;;;;;;9.46;100.00;95100.56;5097315;28;20253;-80
2023/05/13 03:05:41;;;;;;;12.47;9.33;;;;;;;9.57;100.00;95105.16;5093783;28;20232;-81
2023/05/13 03:08:08;;;;;;;11.67;8.63;;;;;;;9.69;100.00;95105.34;5089176;28;20221;-81
2023/05/13 03:10:35;;;;;;;12.10;8.27;;;;;;;9.79;100.00;95108.31;5092649;28;20200;-81
2023/05/13 03:13:02;;;;;;;11.07;8.20;;;;;;;9.84;100.00;95118.88;5092316;28;20208;-81
2023/05/13 03:15:29;;;;;;;10.37;7.10;;;;;;;9.91;100.00;95118.88;5091341;28;20220;-76
2023/05/13 03:17:56;;;;;;;10.80;7.43;;;;;;;9.94;100.00;95108.91;5090431;28;20208;-76
2023/05/13 03:20:23;;;;;;;13.80;7.37;;;;;;;10.00;100.00;95115.88;5090446;28;20289;-76
2023/05/13 03:22:51;;;;;;;8.27;6.50;;;;;;;10.01;100.00;95114.88;5090224;28;20662;-76
2023/05/13 03:25:18;;;;;;;8.70;6.20;;;;;;;10.04;100.00;95104.06;5090024;28;20684;-77
2023/05/13 03:27:45;;;;;;;8.87;6.43;;;;;;;10.06;100.00;95106.47;5090178;28;20635;-77
2023/05/13 03:30:12;;;;;;;10.63;7.60;;;;;;;10.08;100.00;95120.84;5093123;28;20213;-84
2023/05/13 03:32:39;;;;;;;8.10;6.70;;;;;;;10.02;100.00;95106.06;5091387;28;20204;-83
2023/05/13 03:35:07;;;;;;;10.93;7.40;;;;;;;10.10;100.00;95116.25;5091531;28;20200;-84
2023/05/13 03:37:33;;;;;;;8.37;6.57;;;;;;;10.15;100.00;95116.47;5087455;28;20196;-84
2023/05/13 03:40:02;;;;;;;11.70;6.73;;;;;;;10.16;100.00;95125.03;5092176;28;20204;-83
2023/05/13 03:42:29;;;;;;;8.10;6.40;;;;;;;10.20;100.00;95121.84;5091220;28;20211;-83
2023/05/13 03:44:56;;;;;;;9.73;6.87;;;;;;;10.20;100.00;95123.66;5090510;28;20220;-84
2023/05/13 03:47:23;;;;;;;9.80;7.30;;;;;;;10.29;100.00;95132.03;5090327;28;20259;-83
2023/05/13 03:49:50;;;;;;;9.90;7.40;;;;;;;10.27;100.00;95129.63;5091637;28;20193;-83
2023/05/13 03:52:17;;;;;;;7.97;6.50;;;;;;;10.26;100.00;95125.44;5091330;28;20211;-83
2023/05/13 03:54:44;;;;;;;9.63;6.77;;;;;;;10.30;100.00;95131.84;5091066;28;20740;-83
2023/05/13 03:57:12;;;;;;;18.10;9.03;;;;;;;10.09;100.00;95139.81;5091720;28;20196;-83
2023/05/13 03:59:39;;;;;;;11.00;7.97;;;;;;;9.50;100.00;95147.63;5091252;28;20193;-83
2023/05/13 04:02:06;;;;;;;11.73;9.10;;;;;;;9.09;100.00;95147.81;5091246;28;20637;-82
2023/05/13 04:04:33;;;;;;;13.47;9.63;;;;;;;8.89;100.00;95152.09;5094747;28;20667;-82
2023/05/13 04:06:59;;;;;;;15.23;10.13;;;;;;;9.02;100.00;95152.16;5091177;28;20318;-82
2023/05/13 04:09:26;;;;;;;17.80;10.63;;;;;;;9.16;100.00;95153.78;5089645;28;20208;-76
2023/05/13 04:11:53;;;;;;;13.93;10.30;;;;;;;9.27;100.00;95160.19;5089512;28;20200;-77
2023/05/13 04:14:21;;;;;;;13.57;10.10;;;;;;;9.45;100.00;95156.03;5088869;28;20220;-76
2023/05/13 04:16:48;;;;;;;13.10;9.13;;;;;;;9.60;100.00;95163.63;5088524;28;20204;-76
2023/05/13 04:19:15;;;;;;;13.17;8.67;;;;;;;9.55;100.00;95159.00;5089936;28;20288;-81
2023/05/13 04:21:42;;;;;;;10.67;7.93;;;;;;;9.52;100.00;95141.25;5090828;28;20653;-81
2023/05/13 04:24:09;;;;;;;15.87;7.87;;;;;;;9.53;100.00;95157.63;5090336;28;20204;-82
2023/05/13 04:26:38;;;;;;;12.80;8.67;;;;;;;9.67;100.00;95170.41;5091264;28;20208;-82
2023/05/13 04:29:04;;;;;;;10.30;7.93;;;;;;;9.78;100.00;95171.63;5089386;28;20231;-82
2023/05/13 04:31:33;;;;;;;9.67;7.20;;;;;;;9.93;100.00;95179.19;5090934;28;20288;-84
2023/05/13 04:34:00;;;;;;;13.50;7.60;;;;;;;9.96;100.00;95176.97;5090184;28;20205;-82
2023/05/13 04:36:26;;;;;;;10.93;6.90;;;;;;;10.06;100.00;95180.00;5091407;28;20594;-82
2023/05/13 04:38:56;;;;;;;10.63;6.60;;;;;;;10.06;100.00;95179.19;5091200;28;20651;-84
2023/05/13 04:41:23;;;;;;;10.37;6.50;;;;;;;10.25;100.00;95183.56;5090817;28;20290;-82
2023/05/13 04:43:49;;;;;;;10.03;6.33;;;;;;;10.40;99.63;95183.34;5090072;28;20197;-77
2023/05/13 04:46:16;;;;;;;8.97;6.60;;;;;;;10.38;96.84;95180.97;5089606;28;20223;-79
2023/05/13 04:48:47;;;;;;;11.53;6.43;;;;;;;10.29;96.30;95183.97;5088544;28;20224;-79
2023/05/13 04:51:14;;;;;;;12.10;7.80;;;;;;;10.29;97.17;95183.97;5087884;28;20200;-78
2023/05/13 04:53:41;;;;;;;9.47;6.73;;;;;;;10.07;96.79;95186.75;5090959;28;20205;-78
2023/05/13 04:56:08;;;;;;;9.63;6.83;;;;;;;10.08;96.87;95177.97;5089333;28;20252;-76
2023/05/13 04:58:35;;;;;;;10.30;6.53;;;;;;;10.15;96.71;95183.19;5084913;28;20219;-76
2023/05/13 05:01:02;;;;;;;9.30;6.50;;;;;;;10.24;97.35;95172.38;5088880;28;20623;-77
2023/05/13 05:03:28;;;;;;;8.63;5.90;;;;;;;10.36;96.61;95174.38;5090978;28;20405;-78
2023/05/13 05:05:57;;;;;;;10.67;6.70;;;;;;;10.45;95.78;95178.31;5090646;28;20800;-76
2023/05/13 05:08:23;;;;;;;10.40;6.63;;;;;;;10.51;96.36;95167.13;5086925;28;20631;-77
2023/05/13 05:10:50;;;;;;;12.53;6.40;;;;;;;10.40;94.01;95175.56;5087843;28;20204;-77
2023/05/13 05:13:17;;;;;;;8.67;5.97;;;;;;;9.98;94.10;95169.81;5091756;28;20591;-77
2023/05/13 05:15:44;;;;;;;9.60;6.27;;;;;;;9.72;96.52;95175.00;5089060;28;20200;-77
2023/05/13 05:18:12;;;;;;;7.80;6.50;;;;;;;9.75;97.19;95182.41;5089122;28;20209;-78
2023/05/13 05:20:39;;;;;;;12.83;6.23;;;;;;;9.86;97.37;95184.41;5090170;28;20647;-78
2023/05/13 05:23:09;;;;;;;7.60;5.90;;;;;;;10.02;96.45;95172.78;5088652;28;20193;-78
2023/05/13 05:25:36;;;;;;;9.47;6.13;;;;;;;10.23;94.96;95183.00;5085095;28;20291;-78
2023/05/13 05:28:03;;;;;;;9.37;6.43;;;;;;;10.47;93.78;95182.34;5088201;28;20670;-78
2023/05/13 05:30:31;;;;;;;9.40;6.20;;;;;;;10.57;93.52;95166.31;5089433;28;20709;-78
2023/05/13 05:32:58;;;;;;;8.93;6.10;;;;;;;10.82;92.67;95186.22;5087434;28;20212;-78
2023/05/13 05:35:25;;;;;;;10.73;6.67;;;;;;;10.95;92.13;95174.97;5092150;28;20208;-78
2023/05/13 05:37:52;;;;;;;8.33;6.47;;;;;;;11.01;90.47;95170.75;5092701;28;20207;-82
2023/05/13 05:40:20;;;;;;;10.17;5.90;;;;;;;10.92;88.77;95175.38;5093307;28;20227;-82
2023/05/13 05:42:47;;;;;;;15.07;6.53;;;;;;;10.97;89.58;95183.34;5089646;28;20586;-82
2023/05/13 05:45:14;;;;;;;17.43;6.73;;;;;;;11.01;89.79;95181.94;5088674;28;20197;-82
2023/05/13 05:47:40;;;;;;;14.00;7.23;;;;;;;11.09;89.44;95178.28;5091285;28;20247;-81
2023/05/13 05:50:08;;;;;;;11.57;6.43;;;;;;;11.23;90.08;95190.22;5089391;28;20204;-82
2023/05/13 05:52:35;;;;;;;10.83;6.10;;;;;;;11.33;90.28;95207.00;5091439;28;20266;-81
2023/05/13 05:55:02;;;;;;;11.63;6.10;;;;;;;11.45;89.74;95193.31;5088936;28;20258;-77
2023/05/13 05:57:30;;;;;;;10.57;6.40;;;;;;;11.53;88.75;95199.06;5093648;28;20210;-78
2023/05/13 05:59:57;;;;;;;10.10;6.50;;;;;;;11.62;90.25;95200.41;5087962;28;20219;-78
2023/05/13 06:02:24;;;;;;;11.90;6.10;;;;;;;11.70;89.92;95202.00;5090781;28;20204;-78
2023/05/13 06:04:50;;;;;;;9.23;5.70;;;;;;;11.74;89.75;95201.38;5091195;28;20236;-77
2023/05/13 06:07:17;;;;;;;9.97;6.27;;;;;;;11.58;89.50;95172.41;5091715;28;20211;-77
2023/05/13 06:09:44;;;;;;;12.30;5.73;;;;;;;11.84;88.27;95199.09;5091624;28;20236;-77
2023/05/13 06:12:10;;;;;;;11.47;5.90;;;;;;;11.85;88.29;95189.47;5091547;28;20200;-77
2023/05/13 06:14:39;;;;;;;9.10;5.40;;;;;;;11.97;87.20;95200.00;5094415;28;20215;-78
2023/05/13 06:17:05;;;;;;;14.57;5.80;;;;;;;11.69;87.74;95198.59;5091840;28;20588;-77
2023/05/13 06:19:32;;;;;;;11.83;4.90;;;;;;;11.20;88.95;95201.84;5091483;28;20212;-78
2023/05/13 06:21:59;;;;;;;10.87;5.10;;;;;;;10.72;89.27;95193.66;5090880;28;20212;-77
2023/05/13 06:24:26;;;;;;;6.97;5.07;;;;;;;10.70;91.48;95203.47;5091822;28;20209;-77
2023/05/13 06:26:52;;;;;;;14.53;6.07;;;;;;;10.90;90.97;95205.19;5090926;28;20201;-77
2023/05/13 06:29:19;;;;;;;9.33;4.90;;;;;;;11.18;87.92;95206.47;5091038;28;20631;-77
2023/05/13 06:31:47;;;;;;;13.23;5.10;;;;;;;11.40;86.46;95210.34;5090692;28;20196;-75
2023/05/13 06:34:15;;;;;;;10.20;5.30;;;;;;;11.55;85.46;95206.66;5090338;28;20230;-78
2023/05/13 06:36:42;;;;;;;6.43;5.53;;;;;;;11.74;83.28;95219.59;5092824;28;20208;-76
2023/05/13 06:39:10;;;;;;;11.13;5.63;;;;;;;11.87;83.17;95208.28;5094459;28;20259;-76
2023/05/13 06:41:37;;;;;;;9.60;5.73;;;;;;;11.97;83.03;95206.00;5087892;28;20208;-77
2023/05/13 06:44:04;;;;;;;11.90;5.73;;;;;;;12.13;82.75;95212.47;5087974;28;20287;-77
2023/05/13 06:46:31;;;;;;;12.50;5.50;;;;;;;12.20;81.35;95198.41;5094073;28;20204;-77
2023/05/13 06:49:00;;;;;;;7.40;5.57;;;;;;;12.27;80.46;95204.34;5093698;28;20228;-77
2023/05/13 06:51:27;;;;;;;17.17;5.87;;;;;;;12.35;80.32;95205.88;5090497;28;20296;-78
2023/05/13 06:53:54;;;;;;;13.53;6.47;;;;;;;12.41;79.37;95213.63;5091287;28;20208;-84
2023/05/13 06:56:21;;;;;;;11.83;6.20;;;;;;;12.49;80.29;95204.75;5093588;28;20201;-86
2023/05/13 06:58:49;;;;;;;14.33;6.20;;;;;;;12.67;80.57;95207.34;5092458;28;20284;-86
2023/05/13 07:01:16;;;;;;;10.97;5.53;;;;;;;12.77;80.02;95214.69;5092130;28;20203;-80
2023/05/13 07:03:43;;;;;;;9.97;6.10;;;;;;;12.87;79.70;95207.16;5094418;28;20627;-80
2023/05/13 07:06:12;;;;;;;10.93;5.67;;;;;;;12.98;78.19;95214.25;5091835;28;20275;-80
2023/05/13 07:08:39;;;;;;;10.40;5.27;;;;;;;13.06;73.92;95219.97;5090970;28;20702;-79
2023/05/13 07:11:06;;;;;;;8.07;5.20;;;;;;;13.04;74.24;95208.94;5091131;28;20196;-79
2023/05/13 07:13:33;;;;;;;11.67;5.63;;;;;;;13.22;75.01;95228.25;5090453;28;20659;-81
2023/05/13 07:16:01;;;;;;;12.83;6.10;;;;;;;13.35;76.08;95226.25;5091821;28;20204;-80
2023/05/13 07:18:27;;;;;;;9.23;5.07;;;;;;;13.45;74.94;95236.16;5090903;28;20689;-80
2023/05/13 07:20:55;;;;;;;6.43;5.07;;;;;;;13.45;73.86;95244.00;5092557;28;20205;-79
2023/05/13 07:23:23;;;;;;;8.90;5.20;;;;;;;13.56;72.77;95251.88;5090868;28;20204;-80
2023/05/13 07:25:51;;;;;;;9.27;5.00;;;;;;;13.67;72.68;95250.34;5090748;28;20258;-80
2023/05/13 07:28:19;;;;;;;11.13;5.37;;;;;;;13.63;69.98;95244.75;5091054;28;20274;-79
2023/05/13 07:30:46;;;;;;;11.83;8.03;;;;;;;13.36;69.43;95245.34;5094004;28;20192;-80
2023/05/13 07:33:13;;;;;;;10.63;7.17;;;;;;;12.84;73.02;95239.66;5091375;28;20585;-80
2023/05/13 07:35:40;;;;;;;6.77;4.67;;;;;;;12.46;75.15;95239.06;5097555;28;20644;-80
2023/05/13 07:38:09;;;;;;;9.10;5.10;;;;;;;12.44;74.85;95233.25;5091234;28;20670;-80
2023/05/13 07:40:38;;;;;;;7.80;5.33;;;;;;;12.67;75.17;95233.44;5088504;28;20216;-81
2023/05/13 07:43:05;;;;;;;9.80;5.50;;;;;;;12.84;74.76;95231.84;5088046;28;20200;-82
2023/05/13 07:45:46;;;;;;;42.63;24.63;;;;;;;13.06;75.19;95230.41;5091096;28;20203;-82
2023/05/13 07:48:24;;;;;;;13.77;6.60;;;;;;;13.26;71.60;95238.03;5087249;28;20205;-80
2023/05/13 07:50:50;;;;;;;9.87;6.87;;;;;;;13.34;72.08;95236.91;5089939;28;20283;-81
2023/05/13 07:53:17;;;;;;;17.90;11.77;;;;;;;13.38;72.46;95240.69;5090159;28;20212;-80
2023/05/13 07:55:45;;;;;;;16.77;10.87;;;;;;;13.53;73.18;95246.31;5090208;28;20671;-80
2023/05/13 07:58:12;;;;;;;35.60;18.60;;;;;;;13.64;72.76;95245.56;5091357;28;20197;-81
2023/05/13 08:00:39;;;;;;;19.53;10.17;;;;;;;13.63;73.08;95231.69;5090719;28;20209;-82
2023/05/13 08:03:06;;;;;;;11.13;6.53;;;;;;;13.82;72.52;95242.91;5091297;28;20200;-82
2023/05/13 08:05:33;;;;;;;11.07;6.43;;;;;;;13.83;72.10;95235.84;5090877;28;20232;-80
2023/05/13 08:08:00;;;;;;;13.83;8.33;;;;;;;13.81;71.53;95224.81;5091397;28;20204;-77
2023/05/13 08:10:27;;;;;;;10.90;6.20;;;;;;;13.79;71.72;95230.28;5090910;28;20239;-80
2023/05/13 08:12:56;;;;;;;9.67;5.40;;;;;;;13.81;71.38;95230.06;5090806;28;20204;-80
2023/05/13 08:15:23;;;;;;;13.30;6.33;;;;;;;13.83;72.31;95226.19;5090095;28;20662;-80
2023/05/13 08:17:52;;;;;;;16.50;6.50;;;;;;;13.88;73.68;95215.09;5090693;28;20255;-79
2023/05/13 08:20:19;;;;;;;12.87;7.70;;;;;;;13.98;74.67;95212.72;5090371;28;20197;-80
2023/05/13 08:22:46;;;;;;;11.40;6.50;;;;;;;14.08;75.30;95215.56;5091012;28;20212;-78
2023/05/13 08:25:14;;;;;;;9.73;5.97;;;;;;;14.21;74.80;95215.34;5089937;28;20207;-79
2023/05/13 08:27:40;;;;;;;9.47;5.40;;;;;;;14.27;74.30;95213.66;5090203;28;20258;-80
2023/05/13 08:30:09;;;;;;;14.00;6.27;;;;;;;14.34;74.64;95220.41;5090644;28;20225;-78
2023/05/13 08:32:36;;;;;;;7.90;5.73;;;;;;;14.42;74.29;95212.22;5090459;28;20204;-79
2023/05/13 08:35:03;;;;;;;9.70;5.80;;;;;;;14.53;71.86;95213.22;5090425;28;20231;-79
2023/05/13 08:37:30;;;;;;;8.80;5.83;;;;;;;14.51;72.88;95210.84;5090452;28;20196;-79
2023/05/13 08:39:59;;;;;;;7.23;5.60;;;;;;;14.47;71.47;95216.75;5090285;28;20201;-81
2023/05/13 08:42:32;;;;;;;9.90;5.60;;;;;;;14.43;72.96;95216.41;5089349;28;20252;-80
2023/05/13 08:45:06;;;;;;;8.23;5.80;;;;;;;14.54;73.04;95209.59;5090485;28;20307;-79
2023/05/13 08:47:43;;;;;;;14.40;6.40;;;;;;;14.15;78.15;95203.97;5090903;28;20580;-81
2023/05/13 08:50:12;;;;;;;8.20;6.37;;;;;;;13.95;80.13;95194.84;5087021;28;20608;-79
2023/05/13 08:52:39;;;;;;;11.47;7.20;;;;;;;13.97;79.40;95195.44;5093631;28;20197;-79
2023/05/13 08:55:08;;;;;;;10.27;6.90;;;;;;;14.11;79.27;95187.16;5089495;28;20193;-79
2023/05/13 08:57:34;;;;;;;11.30;7.10;;;;;;;14.40;79.10;95195.94;5086042;28;20236;-79
2023/05/13 09:00:01;;;;;;;10.93;6.83;;;;;;;14.64;79.20;95194.09;5091876;28;20588;-80
2023/05/13 09:02:30;;;;;;;15.97;7.37;;;;;;;14.82;78.91;95180.91;5092787;28;20200;-82
2023/05/13 09:05:05;;;;;;;13.30;7.77;;;;;;;15.06;78.21;95169.34;5089546;28;20340;-79
2023/05/13 09:07:32;;;;;;;10.37;7.27;;;;;;;15.20;77.41;95167.25;5089073;28;20239;-80
2023/05/13 09:10:02;;;;;;;13.47;7.80;;;;;;;15.33;77.25;95159.91;5087889;28;20231;-81
2023/05/13 09:12:53;;;;;;;13.47;8.03;;;;;;;15.63;74.43;95172.78;5088269;28;20211;-81
2023/05/13 09:15:22;;;;;;;21.63;10.03;;;;;;;15.75;74.83;95173.50;5073133;28;20200;-81
2023/05/13 09:17:51;;;;;;;11.40;7.27;;;;;;;15.98;74.14;95169.16;5089427;28;20208;-81
2023/05/13 09:20:20;;;;;;;11.90;6.90;;;;;;;16.13;73.22;95172.00;5090102;28;20295;-80
2023/05/13 09:22:49;;;;;;;10.03;7.10;;;;;;;16.29;74.53;95185.13;5089808;28;20208;-80
2023/05/13 09:25:17;;;;;;;9.30;6.80;;;;;;;16.44;74.34;95169.59;5091120;28;20657;-81
2023/05/13 09:27:47;;;;;;;9.90;7.40;;;;;;;16.61;74.35;95169.59;5089243;28;20699;-80
2023/05/13 09:30:14;;;;;;;15.10;7.07;;;;;;;16.85;72.95;95181.44;5090881;28;20227;-80
2023/05/13 09:32:42;;;;;;;10.93;7.23;;;;;;;16.94;71.94;95177.34;5089279;28;20204;-82
2023/05/13 09:35:10;;;;;;;10.30;7.53;;;;;;;17.09;72.49;95179.38;5089630;28;20279;-82
2023/05/13 09:37:39;;;;;;;15.13;8.30;;;;;;;17.18;72.89;95171.84;5099294;28;20231;-81
2023/05/13 09:40:11;;;;;;;12.47;7.37;;;;;;;17.27;73.39;95170.38;5097615;28;20211;-81
2023/05/13 09:42:40;;;;;;;11.97;7.80;;;;;;;17.45;73.95;95170.84;5094361;28;20226;-80
2023/05/13 09:45:09;;;;;;;11.53;7.37;;;;;;;17.67;73.49;95164.75;5095010;28;20670;-82
2023/05/13 09:47:36;;;;;;;10.10;7.80;;;;;;;17.86;72.43;95169.44;5093471;28;20892;-82
2023/05/13 09:50:04;;;;;;;14.40;7.23;;;;;;;17.87;72.26;95163.13;5093302;28;20224;-84
2023/05/13 09:52:32;;;;;;;11.23;7.80;;;;;;;17.70;72.37;95161.66;5096277;28;20197;-82
2023/05/13 09:55:03;;;;;;;11.33;7.63;;;;;;;17.15;74.25;95152.13;5096715;28;20214;-82
2023/05/13 09:57:30;;;;;;;146.83;62.63;;;;;;;16.60;76.94;95157.50;5096018;28;20196;-79
2023/05/13 10:00:01;;;;;;;15.03;9.43;;;;;;;16.73;76.18;95146.66;5092048;28;20193;-82
2023/05/13 10:02:28;;;;;;;10.53;7.87;;;;;;;16.94;75.27;95145.84;5094824;28;20212;-83
2023/05/13 10:04:57;;;;;;;9.93;7.00;;;;;;;17.26;76.07;95150.41;5095796;28;20251;-82
2023/05/13 10:07:24;;;;;;;11.30;6.73;;;;;;;17.70;74.90;95151.13;5097396;28;20270;-83
2023/05/13 10:09:54;;;;;;;13.17;7.10;;;;;;;18.14;73.20;95153.34;5097224;28;20562;-83
2023/05/13 10:12:25;;;;;;;14.13;6.77;;;;;;;18.59;72.46;95152.88;5097320;28;20646;-82
2023/05/13 10:14:53;;;;;;;9.65;7.38;;;;;;;19.00;71.65;95148.59;5096988;28;20215;-81
2023/05/13 10:17:21;;;;;;;11.00;7.30;;;;;;;19.40;69.50;95157.69;5096370;28;20224;-82
2023/05/13 10:19:51;;;;;;;11.13;7.15;;;;;;;19.61;68.11;95162.75;5095210;28;20197;-78
2023/05/13 10:22:23;;;;;;;11.07;7.65;;;;;;;19.79;65.25;95157.00;5095683;28;20612;-86
2023/05/13 10:24:51;;;;;;;12.57;7.78;;;;;;;20.00;66.30;95162.28;5095828;28;20200;-79
2023/05/13 10:27:21;;;;;;;13.95;7.93;;;;;;;20.01;65.06;95159.38;5097515;28;20675;-79
2023/05/13 10:29:54;;;;;;;11.90;7.95;;;;;;;19.93;65.16;95157.25;5094911;28;20221;-79
2023/05/13 10:32:22;;;;;;;13.35;8.75;;;;;;;19.80;66.26;95155.91;5092574;28;20687;-81
2023/05/13 10:34:52;;;;;;;11.73;7.63;;;;;;;19.85;67.39;95157.78;5094492;28;20200;-79
2023/05/13 10:37:53;;;;;;;13.68;8.57;;;;;;;19.98;65.13;95146.69;5094001;28;20243;-81
2023/05/13 10:40:52;;;;;;;11.65;8.25;;;;;;;20.17;63.15;95153.00;5076790;28;20216;-80
2023/05/13 10:43:24;;;;;;;11.65;7.50;;;;;;;20.28;65.00;95156.50;5086566;28;20200;-79
2023/05/13 10:45:57;;;;;;;12.43;7.68;;;;;;;20.59;64.88;95159.88;5095208;28;20232;-80
2023/05/13 10:48:24;;;;;;;11.40;7.43;;;;;;;20.90;63.23;95161.34;5094108;28;20234;-79
2023/05/13 10:50:53;;;;;;;11.32;7.72;;;;;;;20.99;61.49;95167.69;5092833;28;20224;-80
2023/05/13 10:53:25;;;;;;;8.80;7.70;;;;;;;21.07;60.65;95172.41;5092341;28;20291;-79
2023/05/13 10:55:54;;;;;;;14.48;8.15;;;;;;;20.85;61.43;95161.38;5091878;28;20197;-79
2023/05/13 10:58:23;;;;;;;11.52;7.53;;;;;;;19.94;65.37;95152.78;5090886;28;20262;-81
2023/05/13 11:00:52;;;;;;;13.27;7.75;;;;;;;19.55;65.39;95157.72;5091355;28;20275;-79
2023/05/13 11:03:29;;;;;;;12.90;7.57;;;;;;;19.39;68.50;95154.28;5090878;28;20200;-80
2023/05/13 11:06:14;;;;;;;12.48;7.97;;;;;;;19.96;68.51;95151.44;5091303;28;20258;-80
2023/05/13 11:08:43;;;;;;;11.23;7.85;;;;;;;20.54;64.74;95162.53;5089009;28;20255;-79
2023/05/13 11:11:27;;;;;;;11.82;7.28;;;;;;;21.11;63.53;95151.53;5093810;28;20224;-81
2023/05/13 11:13:55;;;;;;;11.20;7.25;;;;;;;21.55;62.30;95162.97;5090121;28;21037;-81
2023/05/13 11:16:23;;;;;;;11.38;7.15;;;;;;;21.97;61.80;95147.34;5091587;28;20304;-78
2023/05/13 11:18:51;;;;;;;9.65;7.35;;;;;;;22.37;60.58;95143.56;5091834;28;20205;-80
2023/05/13 11:21:30;;;;;;;10.98;7.35;;;;;;;22.45;56.07;95155.44;5091484;28;20200;-80
2023/05/13 11:23:58;;;;;;;10.77;7.00;;;;;;;22.44;57.64;95146.69;5091653;28;20208;-80
2023/05/13 11:26:25;;;;;;;11.93;6.88;;;;;;;22.57;56.43;95142.56;5091352;28;20749;-80
2023/05/13 11:29:03;;;;;;;8.80;7.13;;;;;;;22.81;55.26;95147.91;5091903;28;20578;-80
2023/05/13 11:31:44;;;;;;;12.18;7.13;;;;;;;22.86;56.45;95131.94;5092345;28;20227;-80